sensor_id;sensor_type;location;lat;lon;timestamp;P1;durP1;ratioP1;P2;durP2;ratioP2
33285;SDS011;19656;50.096;20.014;2022-08-21T00:00:09;19.20;;;12.10;;
33285;SDS011;19656;50.096;20.014;2022-08-21T00:05:37;18.20;;;11.10;;
33285;SDS011;19656;50.096;20.014;2022-08-21T00:10:43;17.10;;;11.50;;
33285;SDS011;19656;50.096;20.014;2022-08-21T00:15:47;21.80;;;11.20;;
33285;SDS011;19656;50.096;20.014;2022-08-21T00:20:51;15.90;;;10.90;;
33285;SDS011;19656;50.096;20.014;2022-08-21T00:25:55;18.40;;;11.20;;
33285;SDS011;19656;50.096;20.014;2022-08-21T00:30:57;18.40;;;11.60;;
33285;SDS011;19656;50.096;20.014;2022-08-21T00:36:01;16.00;;;11.50;;
33285;SDS011;19656;50.096;20.014;2022-08-21T00:41:06;19.80;;;12.10;;
33285;SDS011;19656;50.096;20.014;2022-08-21T00:46:31;16.90;;;11.70;;
33285;SDS011;19656;50.096;20.014;2022-08-21T00:51:47;20.10;;;12.20;;
33285;SDS011;19656;50.096;20.014;2022-08-21T00:56:54;17.50;;;12.00;;
33285;SDS011;19656;50.096;20.014;2022-08-21T01:02:03;20.90;;;13.10;;
33285;SDS011;19656;50.096;20.014;2022-08-21T01:07:07;22.10;;;13.00;;
33285;SDS011;19656;50.096;20.014;2022-08-21T01:12:11;21.10;;;12.30;;
33285;SDS011;19656;50.096;20.014;2022-08-21T01:22:20;19.60;;;12.50;;
33285;SDS011;19656;50.096;20.014;2022-08-21T01:27:23;21.40;;;13.50;;
33285;SDS011;19656;50.096;20.014;2022-08-21T01:32:26;21.10;;;13.50;;
33285;SDS011;19656;50.096;20.014;2022-08-21T01:37:29;21.20;;;13.40;;
33285;SDS011;19656;50.096;20.014;2022-08-21T01:42:32;18.20;;;12.70;;
33285;SDS011;19656;50.096;20.014;2022-08-21T01:47:36;23.00;;;12.70;;
33285;SDS011;19656;50.096;20.014;2022-08-21T01:52:40;19.90;;;12.10;;
33285;SDS011;19656;50.096;20.014;2022-08-21T01:57:43;18.20;;;12.80;;
33285;SDS011;19656;50.096;20.014;2022-08-21T02:02:47;25.30;;;13.80;;
33285;SDS011;19656;50.096;20.014;2022-08-21T02:07:51;19.80;;;13.20;;
33285;SDS011;19656;50.096;20.014;2022-08-21T02:12:55;21.10;;;13.90;;
33285;SDS011;19656;50.096;20.014;2022-08-21T02:18:00;19.00;;;13.20;;
33285;SDS011;19656;50.096;20.014;2022-08-21T02:23:04;19.90;;;12.40;;
33285;SDS011;19656;50.096;20.014;2022-08-21T02:28:10;22.10;;;13.90;;
33285;SDS011;19656;50.096;20.014;2022-08-21T02:33:15;19.00;;;13.20;;
33285;SDS011;19656;50.096;20.014;2022-08-21T02:38:20;22.10;;;13.70;;
33285;SDS011;19656;50.096;20.014;2022-08-21T02:43:25;21.00;;;14.10;;
33285;SDS011;19656;50.096;20.014;2022-08-21T02:48:30;17.50;;;12.00;;
33285;SDS011;19656;50.096;20.014;2022-08-21T02:53:34;18.20;;;12.70;;
33285;SDS011;19656;50.096;20.014;2022-08-21T02:58:42;23.20;;;14.00;;
33285;SDS011;19656;50.096;20.014;2022-08-21T03:03:48;23.00;;;13.60;;
33285;SDS011;19656;50.096;20.014;2022-08-21T03:08:53;21.90;;;13.50;;
33285;SDS011;19656;50.096;20.014;2022-08-21T03:13:56;21.40;;;14.60;;
33285;SDS011;19656;50.096;20.014;2022-08-21T03:18:59;25.90;;;13.50;;
33285;SDS011;19656;50.096;20.014;2022-08-21T03:24:02;19.20;;;12.90;;
33285;SDS011;19656;50.096;20.014;2022-08-21T03:29:08;24.00;;;13.50;;
33285;SDS011;19656;50.096;20.014;2022-08-21T03:34:11;20.00;;;13.70;;
33285;SDS011;19656;50.096;20.014;2022-08-21T03:39:14;20.40;;;14.70;;
33285;SDS011;19656;50.096;20.014;2022-08-21T03:44:19;23.50;;;14.90;;
33285;SDS011;19656;50.096;20.014;2022-08-21T03:49:22;23.00;;;13.40;;
33285;SDS011;19656;50.096;20.014;2022-08-21T03:54:25;21.00;;;13.30;;
33285;SDS011;19656;50.096;20.014;2022-08-21T03:59:30;21.90;;;14.80;;
33285;SDS011;19656;50.096;20.014;2022-08-21T04:04:33;20.30;;;14.60;;
33285;SDS011;19656;50.096;20.014;2022-08-21T04:09:36;21.10;;;14.90;;
33285;SDS011;19656;50.096;20.014;2022-08-21T04:14:40;20.00;;;14.20;;
33285;SDS011;19656;50.096;20.014;2022-08-21T04:19:44;23.10;;;15.10;;
33285;SDS011;19656;50.096;20.014;2022-08-21T04:24:53;19.00;;;14.10;;
33285;SDS011;19656;50.096;20.014;2022-08-21T04:29:55;19.60;;;13.90;;
33285;SDS011;19656;50.096;20.014;2022-08-21T04:34:59;21.70;;;15.30;;
33285;SDS011;19656;50.096;20.014;2022-08-21T04:40:04;26.80;;;15.10;;
33285;SDS011;19656;50.096;20.014;2022-08-21T04:45:09;22.70;;;15.10;;
33285;SDS011;19656;50.096;20.014;2022-08-21T04:50:12;23.80;;;15.40;;
33285;SDS011;19656;50.096;20.014;2022-08-21T04:55:16;20.80;;;14.30;;
33285;SDS011;19656;50.096;20.014;2022-08-21T05:00:22;25.40;;;15.80;;
33285;SDS011;19656;50.096;20.014;2022-08-21T05:05:27;23.30;;;15.60;;
33285;SDS011;19656;50.096;20.014;2022-08-21T05:10:32;23.80;;;16.10;;
33285;SDS011;19656;50.096;20.014;2022-08-21T05:15:35;22.60;;;15.60;;
33285;SDS011;19656;50.096;20.014;2022-08-21T05:20:38;21.20;;;15.80;;
33285;SDS011;19656;50.096;20.014;2022-08-21T05:25:41;19.30;;;13.90;;
33285;SDS011;19656;50.096;20.014;2022-08-21T05:30:44;23.20;;;15.70;;
33285;SDS011;19656;50.096;20.014;2022-08-21T05:35:49;24.60;;;15.10;;
33285;SDS011;19656;50.096;20.014;2022-08-21T05:40:54;24.10;;;16.10;;
33285;SDS011;19656;50.096;20.014;2022-08-21T05:45:57;22.60;;;16.30;;
33285;SDS011;19656;50.096;20.014;2022-08-21T05:51:04;23.90;;;15.00;;
33285;SDS011;19656;50.096;20.014;2022-08-21T05:56:10;22.50;;;14.90;;
33285;SDS011;19656;50.096;20.014;2022-08-21T06:01:13;23.40;;;16.10;;
33285;SDS011;19656;50.096;20.014;2022-08-21T06:06:18;22.60;;;16.20;;
33285;SDS011;19656;50.096;20.014;2022-08-21T06:11:21;25.10;;;16.40;;
33285;SDS011;19656;50.096;20.014;2022-08-21T06:16:30;22.70;;;17.40;;
33285;SDS011;19656;50.096;20.014;2022-08-21T06:21:33;30.40;;;16.60;;
33285;SDS011;19656;50.096;20.014;2022-08-21T06:26:36;25.80;;;16.70;;
33285;SDS011;19656;50.096;20.014;2022-08-21T06:31:39;27.30;;;16.90;;
33285;SDS011;19656;50.096;20.014;2022-08-21T06:36:43;23.10;;;17.60;;
33285;SDS011;19656;50.096;20.014;2022-08-21T06:41:47;24.20;;;17.90;;
33285;SDS011;19656;50.096;20.014;2022-08-21T06:46:50;23.70;;;16.70;;
33285;SDS011;19656;50.096;20.014;2022-08-21T06:51:53;23.80;;;15.50;;
33285;SDS011;19656;50.096;20.014;2022-08-21T06:56:56;24.40;;;16.30;;
33285;SDS011;19656;50.096;20.014;2022-08-21T07:01:59;24.70;;;16.30;;
33285;SDS011;19656;50.096;20.014;2022-08-21T07:07:03;24.00;;;17.60;;
33285;SDS011;19656;50.096;20.014;2022-08-21T07:12:06;25.30;;;16.30;;
33285;SDS011;19656;50.096;20.014;2022-08-21T07:17:09;25.10;;;18.40;;
33285;SDS011;19656;50.096;20.014;2022-08-21T07:22:12;25.90;;;17.10;;
33285;SDS011;19656;50.096;20.014;2022-08-21T07:27:20;23.20;;;16.10;;
33285;SDS011;19656;50.096;20.014;2022-08-21T07:32:24;23.00;;;17.20;;
33285;SDS011;19656;50.096;20.014;2022-08-21T07:37:27;24.50;;;17.10;;
33285;SDS011;19656;50.096;20.014;2022-08-21T07:42:30;28.90;;;17.20;;
33285;SDS011;19656;50.096;20.014;2022-08-21T07:47:34;24.00;;;17.90;;
33285;SDS011;19656;50.096;20.014;2022-08-21T07:52:44;24.80;;;16.30;;
33285;SDS011;19656;50.096;20.014;2022-08-21T07:57:48;24.00;;;17.90;;
33285;SDS011;19656;50.096;20.014;2022-08-21T08:02:52;27.10;;;17.20;;
33285;SDS011;19656;50.096;20.014;2022-08-21T08:07:56;23.10;;;16.80;;
33285;SDS011;19656;50.096;20.014;2022-08-21T08:12:59;20.90;;;15.80;;
33285;SDS011;19656;50.096;20.014;2022-08-21T08:18:03;23.40;;;15.30;;
33285;SDS011;19656;50.096;20.014;2022-08-21T08:23:07;20.40;;;15.00;;
33285;SDS011;19656;50.096;20.014;2022-08-21T08:28:13;24.10;;;16.00;;
33285;SDS011;19656;50.096;20.014;2022-08-21T08:33:19;24.40;;;15.70;;
33285;SDS011;19656;50.096;20.014;2022-08-21T08:38:23;20.80;;;15.30;;
33285;SDS011;19656;50.096;20.014;2022-08-21T08:43:28;21.50;;;15.50;;
33285;SDS011;19656;50.096;20.014;2022-08-21T08:53:58;21.70;;;15.20;;
33285;SDS011;19656;50.096;20.014;2022-08-21T08:59:11;23.20;;;15.80;;
33285;SDS011;19656;50.096;20.014;2022-08-21T09:04:29;22.40;;;15.90;;
33285;SDS011;19656;50.096;20.014;2022-08-21T09:20:19;19.60;;;14.00;;
33285;SDS011;19656;50.096;20.014;2022-08-21T09:25:53;18.70;;;13.90;;
33285;SDS011;19656;50.096;20.014;2022-08-21T09:31:08;21.00;;;15.40;;
33285;SDS011;19656;50.096;20.014;2022-08-21T09:41:43;18.10;;;13.80;;
33285;SDS011;19656;50.096;20.014;2022-08-21T09:46:50;18.40;;;14.20;;
33285;SDS011;19656;50.096;20.014;2022-08-21T09:51:55;23.80;;;15.50;;
33285;SDS011;19656;50.096;20.014;2022-08-21T09:57:06;23.10;;;14.60;;
33285;SDS011;19656;50.096;20.014;2022-08-21T10:02:37;24.20;;;15.00;;
33285;SDS011;19656;50.096;20.014;2022-08-21T10:07:41;20.10;;;13.90;;
33285;SDS011;19656;50.096;20.014;2022-08-21T10:12:54;15.90;;;13.00;;
33285;SDS011;19656;50.096;20.014;2022-08-21T10:18:07;18.60;;;14.40;;
33285;SDS011;19656;50.096;20.014;2022-08-21T10:28:47;23.20;;;13.70;;
33285;SDS011;19656;50.096;20.014;2022-08-21T10:51:20;20.70;;;14.40;;
33285;SDS011;19656;50.096;20.014;2022-08-21T10:56:35;19.30;;;15.10;;
33285;SDS011;19656;50.096;20.014;2022-08-21T11:07:36;22.30;;;16.80;;
33285;SDS011;19656;50.096;20.014;2022-08-21T11:12:47;27.60;;;17.30;;
33285;SDS011;19656;50.096;20.014;2022-08-21T11:23:31;20.90;;;15.10;;
33285;SDS011;19656;50.096;20.014;2022-08-21T11:28:54;18.90;;;12.10;;
33285;SDS011;19656;50.096;20.014;2022-08-21T11:39:17;10.80;;;6.60;;
33285;SDS011;19656;50.096;20.014;2022-08-21T11:49:59;12.70;;;5.10;;
33285;SDS011;19656;50.096;20.014;2022-08-21T11:55:50;8.30;;;4.30;;
33285;SDS011;19656;50.096;20.014;2022-08-21T12:01:16;8.30;;;5.00;;
33285;SDS011;19656;50.096;20.014;2022-08-21T12:06:38;5.10;;;3.20;;
33285;SDS011;19656;50.096;20.014;2022-08-21T12:11:45;6.20;;;3.00;;
33285;SDS011;19656;50.096;20.014;2022-08-21T12:16:51;6.10;;;4.60;;
33285;SDS011;19656;50.096;20.014;2022-08-21T12:32:44;7.70;;;3.70;;
33285;SDS011;19656;50.096;20.014;2022-08-21T12:42:55;9.30;;;4.10;;
33285;SDS011;19656;50.096;20.014;2022-08-21T12:48:16;6.70;;;3.70;;
33285;SDS011;19656;50.096;20.014;2022-08-21T12:53:30;5.60;;;4.30;;
33285;SDS011;19656;50.096;20.014;2022-08-21T12:58:44;7.00;;;4.20;;
33285;SDS011;19656;50.096;20.014;2022-08-21T13:03:48;8.80;;;3.60;;
33285;SDS011;19656;50.096;20.014;2022-08-21T13:09:10;5.50;;;3.40;;
33285;SDS011;19656;50.096;20.014;2022-08-21T13:14:24;13.80;;;7.30;;
33285;SDS011;19656;50.096;20.014;2022-08-21T13:19:32;6.80;;;2.60;;
33285;SDS011;19656;50.096;20.014;2022-08-21T13:24:36;5.30;;;2.60;;
33285;SDS011;19656;50.096;20.014;2022-08-21T13:29:45;5.50;;;2.30;;
33285;SDS011;19656;50.096;20.014;2022-08-21T13:34:57;9.40;;;1.90;;
33285;SDS011;19656;50.096;20.014;2022-08-21T13:40:01;6.70;;;2.50;;
33285;SDS011;19656;50.096;20.014;2022-08-21T13:45:10;3.20;;;2.10;;
33285;SDS011;19656;50.096;20.014;2022-08-21T13:50:16;6.00;;;2.60;;
33285;SDS011;19656;50.096;20.014;2022-08-21T13:55:23;4.80;;;3.20;;
33285;SDS011;19656;50.096;20.014;2022-08-21T14:00:28;3.50;;;2.70;;
33285;SDS011;19656;50.096;20.014;2022-08-21T14:05:34;6.10;;;2.90;;
33285;SDS011;19656;50.096;20.014;2022-08-21T14:10:41;7.00;;;2.60;;
33285;SDS011;19656;50.096;20.014;2022-08-21T14:15:58;4.10;;;3.10;;
33285;SDS011;19656;50.096;20.014;2022-08-21T14:21:07;6.50;;;3.10;;
33285;SDS011;19656;50.096;20.014;2022-08-21T14:26:11;6.30;;;2.90;;
33285;SDS011;19656;50.096;20.014;2022-08-21T14:31:16;3.30;;;3.00;;
33285;SDS011;19656;50.096;20.014;2022-08-21T14:36:21;3.00;;;2.70;;
33285;SDS011;19656;50.096;20.014;2022-08-21T14:41:25;3.80;;;2.70;;
33285;SDS011;19656;50.096;20.014;2022-08-21T14:46:30;3.70;;;2.80;;
33285;SDS011;19656;50.096;20.014;2022-08-21T14:51:35;4.30;;;2.70;;
33285;SDS011;19656;50.096;20.014;2022-08-21T14:56:46;5.00;;;2.60;;
33285;SDS011;19656;50.096;20.014;2022-08-21T15:01:49;3.90;;;2.60;;
33285;SDS011;19656;50.096;20.014;2022-08-21T15:06:52;4.00;;;2.10;;
33285;SDS011;19656;50.096;20.014;2022-08-21T15:11:57;3.00;;;1.90;;
33285;SDS011;19656;50.096;20.014;2022-08-21T15:17:02;2.90;;;1.90;;
33285;SDS011;19656;50.096;20.014;2022-08-21T15:22:08;3.30;;;1.90;;
33285;SDS011;19656;50.096;20.014;2022-08-21T15:27:20;3.60;;;1.70;;
33285;SDS011;19656;50.096;20.014;2022-08-21T15:32:25;4.50;;;1.50;;
33285;SDS011;19656;50.096;20.014;2022-08-21T15:37:31;3.40;;;1.60;;
33285;SDS011;19656;50.096;20.014;2022-08-21T15:42:34;2.70;;;1.90;;
33285;SDS011;19656;50.096;20.014;2022-08-21T15:47:38;4.60;;;2.10;;
33285;SDS011;19656;50.096;20.014;2022-08-21T15:52:45;9.30;;;2.30;;
33285;SDS011;19656;50.096;20.014;2022-08-21T15:57:49;6.10;;;2.80;;
33285;SDS011;19656;50.096;20.014;2022-08-21T16:03:00;7.00;;;3.60;;
33285;SDS011;19656;50.096;20.014;2022-08-21T16:08:06;10.30;;;3.70;;
33285;SDS011;19656;50.096;20.014;2022-08-21T16:13:12;10.60;;;4.30;;
33285;SDS011;19656;50.096;20.014;2022-08-21T16:18:22;7.60;;;4.90;;
33285;SDS011;19656;50.096;20.014;2022-08-21T16:23:26;11.30;;;5.40;;
33285;SDS011;19656;50.096;20.014;2022-08-21T16:28:29;8.80;;;6.00;;
33285;SDS011;19656;50.096;20.014;2022-08-21T16:38:42;8.90;;;5.60;;
33285;SDS011;19656;50.096;20.014;2022-08-21T16:43:45;6.50;;;5.30;;
33285;SDS011;19656;50.096;20.014;2022-08-21T16:48:50;6.00;;;5.00;;
33285;SDS011;19656;50.096;20.014;2022-08-21T16:53:53;8.30;;;4.20;;
33285;SDS011;19656;50.096;20.014;2022-08-21T16:58:56;6.10;;;3.10;;
33285;SDS011;19656;50.096;20.014;2022-08-21T17:04:00;5.60;;;3.40;;
33285;SDS011;19656;50.096;20.014;2022-08-21T17:09:03;4.90;;;3.40;;
33285;SDS011;19656;50.096;20.014;2022-08-21T17:14:09;4.80;;;2.70;;
33285;SDS011;19656;50.096;20.014;2022-08-21T17:19:14;3.40;;;2.00;;
33285;SDS011;19656;50.096;20.014;2022-08-21T17:24:17;4.70;;;3.80;;
33285;SDS011;19656;50.096;20.014;2022-08-21T17:29:23;3.00;;;2.00;;
33285;SDS011;19656;50.096;20.014;2022-08-21T17:34:28;2.10;;;1.70;;
33285;SDS011;19656;50.096;20.014;2022-08-21T17:39:33;3.10;;;2.20;;
33285;SDS011;19656;50.096;20.014;2022-08-21T17:44:38;3.20;;;2.30;;
33285;SDS011;19656;50.096;20.014;2022-08-21T17:49:46;3.60;;;2.80;;
33285;SDS011;19656;50.096;20.014;2022-08-21T17:54:49;5.30;;;2.00;;
33285;SDS011;19656;50.096;20.014;2022-08-21T17:59:52;2.60;;;1.80;;
33285;SDS011;19656;50.096;20.014;2022-08-21T18:05:00;2.70;;;2.10;;
33285;SDS011;19656;50.096;20.014;2022-08-21T18:10:05;2.50;;;2.10;;
33285;SDS011;19656;50.096;20.014;2022-08-21T18:15:13;2.40;;;2.20;;
33285;SDS011;19656;50.096;20.014;2022-08-21T18:20:19;3.80;;;2.30;;
33285;SDS011;19656;50.096;20.014;2022-08-21T18:25:24;3.20;;;2.50;;
33285;SDS011;19656;50.096;20.014;2022-08-21T18:30:27;3.70;;;2.30;;
33285;SDS011;19656;50.096;20.014;2022-08-21T18:35:30;2.60;;;2.00;;
33285;SDS011;19656;50.096;20.014;2022-08-21T18:40:34;3.90;;;1.80;;
33285;SDS011;19656;50.096;20.014;2022-08-21T18:45:40;2.60;;;1.80;;
33285;SDS011;19656;50.096;20.014;2022-08-21T18:50:45;2.30;;;1.70;;
33285;SDS011;19656;50.096;20.014;2022-08-21T18:55:49;4.10;;;2.00;;
33285;SDS011;19656;50.096;20.014;2022-08-21T19:00:52;5.20;;;1.70;;
33285;SDS011;19656;50.096;20.014;2022-08-21T19:05:57;2.80;;;1.90;;
33285;SDS011;19656;50.096;20.014;2022-08-21T19:11:00;1.70;;;1.60;;
33285;SDS011;19656;50.096;20.014;2022-08-21T19:16:05;1.50;;;1.30;;
33285;SDS011;19656;50.096;20.014;2022-08-21T19:26:14;2.40;;;1.80;;
33285;SDS011;19656;50.096;20.014;2022-08-21T19:31:40;3.40;;;1.70;;
33285;SDS011;19656;50.096;20.014;2022-08-21T19:36:43;1.70;;;1.20;;
33285;SDS011;19656;50.096;20.014;2022-08-21T19:41:48;1.70;;;1.40;;
33285;SDS011;19656;50.096;20.014;2022-08-21T19:46:54;2.00;;;1.80;;
33285;SDS011;19656;50.096;20.014;2022-08-21T19:52:00;1.70;;;1.60;;
33285;SDS011;19656;50.096;20.014;2022-08-21T19:57:14;2.80;;;1.40;;
33285;SDS011;19656;50.096;20.014;2022-08-21T20:02:20;1.80;;;1.70;;
33285;SDS011;19656;50.096;20.014;2022-08-21T20:07:23;2.20;;;2.00;;
33285;SDS011;19656;50.096;20.014;2022-08-21T20:12:28;3.00;;;1.70;;
33285;SDS011;19656;50.096;20.014;2022-08-21T20:17:31;2.30;;;1.50;;
33285;SDS011;19656;50.096;20.014;2022-08-21T20:22:35;1.70;;;1.40;;
33285;SDS011;19656;50.096;20.014;2022-08-21T20:27:38;2.10;;;1.40;;
33285;SDS011;19656;50.096;20.014;2022-08-21T20:32:42;1.50;;;1.40;;
33285;SDS011;19656;50.096;20.014;2022-08-21T20:37:45;1.50;;;1.20;;
33285;SDS011;19656;50.096;20.014;2022-08-21T20:43:00;2.50;;;1.50;;
33285;SDS011;19656;50.096;20.014;2022-08-21T20:48:08;2.70;;;1.50;;
33285;SDS011;19656;50.096;20.014;2022-08-21T20:53:31;2.90;;;1.40;;
33285;SDS011;19656;50.096;20.014;2022-08-21T20:59:01;1.60;;;0.90;;
33285;SDS011;19656;50.096;20.014;2022-08-21T21:04:17;1.20;;;1.10;;
33285;SDS011;19656;50.096;20.014;2022-08-21T21:09:55;1.20;;;1.00;;
33285;SDS011;19656;50.096;20.014;2022-08-21T21:15:04;2.20;;;1.40;;
33285;SDS011;19656;50.096;20.014;2022-08-21T21:20:54;2.70;;;1.50;;
33285;SDS011;19656;50.096;20.014;2022-08-21T21:31:51;1.20;;;1.10;;
33285;SDS011;19656;50.096;20.014;2022-08-21T21:36:56;1.70;;;1.30;;
33285;SDS011;19656;50.096;20.014;2022-08-21T21:42:12;1.60;;;1.10;;
33285;SDS011;19656;50.096;20.014;2022-08-21T21:47:38;1.10;;;1.00;;
33285;SDS011;19656;50.096;20.014;2022-08-21T21:58:27;1.40;;;1.20;;
33285;SDS011;19656;50.096;20.014;2022-08-21T22:03:48;2.10;;;1.30;;
33285;SDS011;19656;50.096;20.014;2022-08-21T22:09:06;2.80;;;1.00;;
33285;SDS011;19656;50.096;20.014;2022-08-21T22:14:19;4.30;;;1.00;;
33285;SDS011;19656;50.096;20.014;2022-08-21T22:19:28;2.80;;;0.90;;
33285;SDS011;19656;50.096;20.014;2022-08-21T22:24:37;2.00;;;1.00;;
33285;SDS011;19656;50.096;20.014;2022-08-21T22:29:46;1.10;;;0.90;;
33285;SDS011;19656;50.096;20.014;2022-08-21T22:40:12;1.20;;;1.00;;
33285;SDS011;19656;50.096;20.014;2022-08-21T22:45:21;1.40;;;1.10;;
33285;SDS011;19656;50.096;20.014;2022-08-21T23:06:31;1.70;;;1.20;;
33285;SDS011;19656;50.096;20.014;2022-08-21T23:11:37;1.50;;;1.10;;
33285;SDS011;19656;50.096;20.014;2022-08-21T23:17:34;2.90;;;1.40;;
33285;SDS011;19656;50.096;20.014;2022-08-21T23:27:45;3.80;;;2.50;;
33285;SDS011;19656;50.096;20.014;2022-08-21T23:33:04;4.70;;;2.00;;
33285;SDS011;19656;50.096;20.014;2022-08-21T23:49:41;4.60;;;3.10;;
